Time;durP1;ratioP1;P1;durP2;ratioP2;P2;SDS_P1;SDS_P2;PMS_P1;PMS_P2;Temp;Humidity;BMP_temperature;BMP_pressure;BME280_temperature;BME280_humidity;BME280_pressure;Samples;Min_cycle;Max_cycle;Signal;HPM_P1;HPM_P2
2023/04/19 00:00:31;;;;;;;3.00;2.80;;;;;;;19.01;52.65;97813.53;4865710;29;20286;-27
2023/04/19 00:02:57;;;;;;;2.97;2.77;;;;;;;19.94;52.13;97972.28;4889607;29;20230;-32
2023/04/19 00:05:25;;;;;;;3.00;2.80;;;;;;;19.26;52.33;97857.13;4889311;29;20207;-36
2023/04/19 00:07:51;;;;;;;3.30;3.00;;;;;;;19.93;52.59;97968.84;4888339;29;20206;-37
2023/04/19 00:10:18;;;;;;;3.50;3.20;;;;;;;19.81;52.37;97944.53;4889456;29;20210;-31
2023/04/19 00:12:44;;;;;;;3.37;3.07;;;;;;;18.16;52.37;97655.28;4871895;29;20221;-29
2023/04/19 00:15:11;;;;;;;2.77;2.57;;;;;;;19.93;52.28;97966.31;4887073;29;21202;-32
2023/04/19 00:17:38;;;;;;;3.10;2.90;;;;;;;19.65;52.57;97912.41;4887508;29;20251;-35
2023/04/19 00:20:05;;;;;;;2.97;2.77;;;;;;;19.79;52.28;97935.94;4887749;29;20674;-31
2023/04/19 00:22:31;;;;;;;3.07;2.87;;;;;;;19.15;52.55;97817.56;4889142;29;20235;-26
2023/04/19 00:25:10;;;;;;;3.37;3.10;;;;;;;19.94;52.34;97952.78;4887408;29;20211;-34
2023/04/19 00:27:37;;;;;;;2.87;2.67;;;;;;;19.95;52.28;97951.06;4887666;29;20646;-33
2023/04/19 00:30:04;;;;;;;2.90;2.70;;;;;;;19.95;52.38;97949.41;4888869;29;20203;-39
2023/04/19 00:32:31;;;;;;;3.40;3.10;;;;;;;19.80;52.77;97925.81;4889684;29;20215;-35
2023/04/19 00:34:57;;;;;;;2.87;2.67;;;;;;;19.95;52.22;97948.50;4883663;29;20283;-32
2023/04/19 00:37:24;;;;;;;3.07;2.87;;;;;;;19.94;52.33;97940.00;4881922;29;20254;-31
2023/04/19 00:39:50;;;;;;;3.20;2.70;;;;;;;19.94;52.38;97942.56;4890815;29;20203;-36
2023/04/19 00:42:17;;;;;;;3.50;3.20;;;;;;;19.95;52.79;97941.75;4888962;29;20236;-28
2023/04/19 00:44:43;;;;;;;3.10;2.90;;;;;;;19.95;52.58;97941.75;4876592;29;20219;-30
2023/04/19 00:47:10;;;;;;;3.27;2.97;;;;;;;19.95;52.57;97939.19;4880999;29;20237;-32
2023/04/19 00:49:36;;;;;;;3.20;3.00;;;;;;;19.95;52.13;97933.22;4867565;29;20207;-31
2023/04/19 00:52:03;;;;;;;2.90;2.70;;;;;;;19.41;52.36;97839.09;4862124;29;20206;-31
2023/04/19 00:54:30;;;;;;;3.10;2.90;;;;;;;19.94;52.47;97928.94;4889100;29;20253;-39
2023/04/19 00:56:57;;;;;;;3.10;2.80;;;;;;;19.23;52.53;97810.25;4886027;29;20330;-33
2023/04/19 00:59:23;;;;;;;3.50;3.20;;;;;;;19.93;52.57;97930.59;4889451;29;20213;-36
2023/04/19 01:01:50;;;;;;;3.47;3.20;;;;;;;19.93;52.49;97930.59;4886814;29;20227;-32
2023/04/19 01:04:17;;;;;;;3.50;3.20;;;;;;;19.57;52.17;97870.41;4879031;29;20715;-41
2023/04/19 01:06:44;;;;;;;3.50;3.20;;;;;;;19.94;52.24;97934.03;4884267;29;20691;-38
2023/04/19 01:09:11;;;;;;;3.07;2.87;;;;;;;19.93;52.65;97927.19;4886059;29;20207;-31
2023/04/19 01:11:37;;;;;;;3.20;2.90;;;;;;;19.93;51.97;97929.75;4885463;29;20217;-31
2023/04/19 01:14:05;;;;;;;3.47;3.20;;;;;;;19.66;52.43;97887.78;4885155;29;20214;-35
2023/04/19 01:16:32;;;;;;;3.07;2.87;;;;;;;19.79;52.17;97897.69;4884397;29;20781;-27
2023/04/19 01:18:59;;;;;;;3.40;3.10;;;;;;;18.98;52.41;97765.03;4881080;29;20227;-28
2023/04/19 01:21:28;;;;;;;3.43;3.13;;;;;;;19.79;52.21;97890.03;4881122;29;20651;-38
2023/04/19 01:23:54;;;;;;;3.13;2.80;;;;;;;19.38;52.53;97826.22;4890241;29;20203;-29
2023/04/19 01:26:21;;;;;;;3.20;3.00;;;;;;;19.92;52.00;97913.56;4887096;29;20726;-28
2023/04/19 01:28:47;;;;;;;2.83;2.63;;;;;;;19.93;52.35;97911.88;4883242;29;20210;-32
2023/04/19 01:31:14;;;;;;;3.23;3.03;;;;;;;19.92;52.53;97910.13;4888564;29;20218;-32
2023/04/19 01:33:41;;;;;;;3.10;2.90;;;;;;;19.89;52.42;97902.34;4884472;29;20215;-41
2023/04/19 01:36:07;;;;;;;3.30;3.00;;;;;;;19.18;52.41;97773.50;4883836;29;20271;-26
2023/04/19 01:38:34;;;;;;;3.37;3.17;;;;;;;19.93;52.50;97901.69;4871735;29;20227;-29
2023/04/19 01:41:01;;;;;;;3.10;2.90;;;;;;;19.92;52.31;97899.94;4872797;29;20842;-29
2023/04/19 01:43:28;;;;;;;2.90;2.70;;;;;;;19.08;52.16;97744.25;4888942;29;20221;-26
2023/04/19 01:45:54;;;;;;;3.27;3.07;;;;;;;19.91;52.48;97893.97;4879413;29;20223;-29
2023/04/19 01:48:21;;;;;;;2.67;2.47;;;;;;;19.77;52.26;97869.56;4879643;29;20219;-26
2023/04/19 01:50:47;;;;;;;3.17;2.97;;;;;;;19.65;52.47;97843.56;4885233;29;20203;-32
2023/04/19 01:53:14;;;;;;;3.23;2.93;;;;;;;19.93;52.49;97894.03;4882821;29;20636;-29
2023/04/19 01:55:41;;;;;;;3.50;3.20;;;;;;;19.43;52.33;97797.59;4885096;29;20263;-30
2023/04/19 01:58:08;;;;;;;2.80;2.60;;;;;;;19.93;52.23;97883.84;4888505;29;20662;-27
2023/04/19 02:00:35;;;;;;;2.97;2.77;;;;;;;19.47;52.12;97798.56;4882016;29;20298;-35
2023/04/19 02:03:01;;;;;;;3.10;2.90;;;;;;;19.54;52.75;97806.53;4884409;29;20218;-29
2023/04/19 02:05:28;;;;;;;3.40;3.20;;;;;;;19.93;52.35;97873.63;4881972;29;20243;-29
2023/04/19 02:07:55;;;;;;;3.30;3.10;;;;;;;19.93;52.40;97882.13;4872130;29;20300;-38
2023/04/19 02:10:21;;;;;;;3.23;3.03;;;;;;;19.94;52.33;97876.25;4887860;29;20234;-28
2023/04/19 02:12:48;;;;;;;3.27;3.07;;;;;;;19.92;52.59;97877.84;4888815;29;20231;-36
2023/04/19 02:15:14;;;;;;;3.00;2.80;;;;;;;19.94;52.43;97890.66;4881492;29;20208;-38
2023/04/19 02:17:42;;;;;;;3.10;2.90;;;;;;;18.90;52.20;97690.00;4888042;29;20702;-32
2023/04/19 02:20:09;;;;;;;2.80;2.60;;;;;;;19.23;52.41;97751.66;4882872;29;20218;-28
2023/04/19 02:22:36;;;;;;;3.33;3.13;;;;;;;19.92;52.46;97866.75;4883335;29;20231;-29
2023/04/19 02:25:03;;;;;;;3.17;2.97;;;;;;;19.93;52.34;97877.03;4886227;29;20214;-32
2023/04/19 02:27:30;;;;;;;3.20;2.93;;;;;;;19.93;52.39;97871.06;4888016;29;20223;-37
2023/04/19 02:29:56;;;;;;;3.00;2.80;;;;;;;19.81;52.15;97850.16;4888006;29;20297;-34
2023/04/19 02:32:23;;;;;;;3.50;3.20;;;;;;;19.93;52.62;97865.97;4870079;29;20218;-34
2023/04/19 02:34:49;;;;;;;3.40;3.10;;;;;;;19.93;52.04;97877.03;4886228;29;20215;-32
2023/04/19 02:37:17;;;;;;;3.17;2.93;;;;;;;19.92;51.81;97864.22;4874133;29;20238;-30
2023/04/19 02:39:44;;;;;;;3.70;3.40;;;;;;;19.90;52.12;97853.09;4883276;29;20207;-32
2023/04/19 02:42:11;;;;;;;3.20;2.90;;;;;;;19.71;52.34;97819.97;4879877;29;20239;-33
2023/04/19 02:44:38;;;;;;;3.00;2.80;;;;;;;19.92;52.46;97854.91;4878272;29;20217;-32
2023/04/19 02:47:04;;;;;;;3.43;3.23;;;;;;;19.53;52.67;97781.88;4869943;29;20226;-31
2023/04/19 02:49:34;;;;;;;2.90;2.70;;;;;;;19.02;52.49;97695.59;4880251;29;20210;-27
2023/04/19 02:52:01;;;;;;;3.40;3.10;;;;;;;19.92;52.04;97852.34;4886284;29;20214;-26
2023/04/19 02:54:27;;;;;;;3.63;3.33;;;;;;;19.92;52.57;97851.47;4882282;29;20710;-35
2023/04/19 02:56:55;;;;;;;3.10;2.90;;;;;;;19.91;52.46;97845.50;4887783;29;20238;-36
2023/04/19 02:59:21;;;;;;;3.37;3.07;;;;;;;19.90;52.67;97838.63;4881801;29;20226;-30
2023/04/19 03:01:48;;;;;;;3.00;2.80;;;;;;;19.92;52.87;97846.34;4879911;29;20231;-27
2023/04/19 03:04:15;;;;;;;3.10;2.90;;;;;;;19.69;52.55;97803.78;4886089;29;20210;-34
2023/04/19 03:06:43;;;;;;;3.60;3.30;;;;;;;19.24;51.95;97723.69;4864061;29;20295;-29
2023/04/19 03:09:10;;;;;;;3.20;2.90;;;;;;;19.77;52.48;97808.34;4880327;29;20666;-27
2023/04/19 03:11:37;;;;;;;3.20;2.90;;;;;;;19.91;52.36;97835.31;4887337;29;20289;-36
2023/04/19 03:14:04;;;;;;;3.30;3.10;;;;;;;19.91;52.46;97822.56;4884207;29;20221;-32
2023/04/19 03:16:30;;;;;;;3.20;3.00;;;;;;;19.54;52.15;97764.91;4886062;29;20290;-28
2023/04/19 03:18:57;;;;;;;3.40;3.10;;;;;;;19.93;52.08;97836.22;4886871;29;20218;-30
2023/04/19 03:21:26;;;;;;;3.23;2.93;;;;;;;19.92;52.13;97826.84;4883401;29;20219;-32
2023/04/19 03:23:53;;;;;;;3.20;3.00;;;;;;;19.93;52.36;97830.25;4877778;29;20236;-30
2023/04/19 03:26:20;;;;;;;3.63;3.33;;;;;;;19.63;52.42;97778.88;4874585;29;20738;-28
2023/04/19 03:28:47;;;;;;;3.27;2.97;;;;;;;19.93;52.18;97823.47;4886061;29;20211;-28
2023/04/19 03:31:13;;;;;;;2.97;2.77;;;;;;;19.93;52.26;97822.63;4879968;29;20222;-32
2023/04/19 03:33:40;;;;;;;2.90;2.70;;;;;;;19.45;52.20;97741.59;4886642;29;20517;-37
2023/04/19 03:36:07;;;;;;;3.50;3.20;;;;;;;19.94;52.47;97822.66;4885820;29;20249;-26
2023/04/19 03:38:33;;;;;;;3.60;3.30;;;;;;;19.22;52.52;97697.25;4887759;29;20226;-32
2023/04/19 03:41:00;;;;;;;2.97;2.77;;;;;;;19.93;52.74;97820.06;4887877;29;20663;-37
2023/04/19 03:43:27;;;;;;;3.07;2.87;;;;;;;19.92;52.40;97814.06;4887909;29;20222;-32
2023/04/19 03:45:53;;;;;;;3.40;3.10;;;;;;;19.92;52.53;97811.53;4883496;29;20232;-28
2023/04/19 03:48:20;;;;;;;3.13;2.83;;;;;;;19.92;52.59;97816.63;4887606;29;20215;-28
2023/04/19 03:50:46;;;;;;;3.47;3.23;;;;;;;19.92;52.39;97810.66;4888626;29;20283;-40
2023/04/19 03:53:13;;;;;;;3.27;3.03;;;;;;;19.51;52.00;97736.75;4886988;29;20603;-31
2023/04/19 03:55:39;;;;;;;3.30;3.10;;;;;;;19.94;52.21;97806.50;4885783;29;20226;-26
2023/04/19 03:58:06;;;;;;;3.27;3.00;;;;;;;19.94;52.21;97809.03;4886934;29;20235;-32
2023/04/19 04:00:32;;;;;;;3.60;3.30;;;;;;;19.79;52.24;97781.25;4889207;29;20207;-32
2023/04/19 04:02:59;;;;;;;3.20;3.00;;;;;;;19.05;51.91;97656.63;4873893;29;20206;-31
2023/04/19 04:05:27;;;;;;;3.33;3.03;;;;;;;19.93;52.29;97808.16;4884558;29;20726;-31
2023/04/19 04:07:53;;;;;;;3.13;2.93;;;;;;;19.94;52.30;97809.91;4886317;29;20199;-34
2023/04/19 04:10:20;;;;;;;3.43;3.17;;;;;;;19.94;52.39;97806.50;4891290;29;20207;-35
2023/04/19 04:12:47;;;;;;;3.53;3.23;;;;;;;19.38;52.23;97706.44;4892990;29;20267;-35
2023/04/19 04:15:14;;;;;;;3.43;3.13;;;;;;;19.65;52.41;97761.09;4888829;29;20217;-37
2023/04/19 04:17:40;;;;;;;3.30;3.00;;;;;;;19.95;52.11;97813.31;4887246;29;20675;-29
2023/04/19 04:20:07;;;;;;;3.60;3.30;;;;;;;19.08;52.38;97666.94;4894361;29;20235;-27
2023/04/19 04:22:34;;;;;;;3.33;3.07;;;;;;;19.24;52.42;97692.22;4893674;29;20231;-29
2023/04/19 04:25:01;;;;;;;3.13;2.83;;;;;;;19.94;51.82;97820.13;4891095;29;20211;-32
2023/04/19 04:27:27;;;;;;;3.33;3.07;;;;;;;19.95;52.40;97813.31;4892434;29;20237;-26
2023/04/19 04:29:55;;;;;;;3.10;2.90;;;;;;;19.96;52.46;97817.63;4892681;29;20207;-35
2023/04/19 04:32:22;;;;;;;3.27;2.97;;;;;;;19.95;52.34;97813.31;4892611;29;20211;-27
2023/04/19 04:34:49;;;;;;;3.33;3.13;;;;;;;19.95;52.24;97810.78;4891941;29;20207;-36
2023/04/19 04:37:16;;;;;;;3.30;3.10;;;;;;;19.95;52.36;97824.41;4891317;29;20263;-31
2023/04/19 04:39:43;;;;;;;3.00;2.80;;;;;;;19.94;52.32;97814.13;4891861;29;20250;-28
2023/04/19 04:42:09;;;;;;;2.93;2.73;;;;;;;19.94;52.54;97815.03;4892044;29;20199;-29
2023/04/19 04:44:37;;;;;;;3.00;2.80;;;;;;;19.53;52.25;97740.19;4889568;29;20235;-37
2023/04/19 04:47:04;;;;;;;3.40;3.20;;;;;;;19.94;52.36;97835.44;4887992;29;20230;-26
2023/04/19 04:49:30;;;;;;;3.30;3.10;;;;;;;19.93;51.92;97815.81;4887055;29;20207;-27
2023/04/19 04:51:57;;;;;;;3.60;3.30;;;;;;;19.94;52.40;97817.56;4882314;29;20277;-32
2023/04/19 04:54:24;;;;;;;3.70;3.40;;;;;;;19.85;52.32;97801.91;4886158;29;20588;-29
2023/04/19 04:56:50;;;;;;;3.47;3.17;;;;;;;19.80;52.70;97792.31;4888217;29;20241;-30
2023/04/19 04:59:17;;;;;;;3.43;3.13;;;;;;;19.94;52.10;97809.91;4887982;29;20243;-27
2023/04/19 05:01:44;;;;;;;3.43;3.00;;;;;;;19.95;52.30;97815.88;4889560;29;20214;-35
2023/04/19 05:04:10;;;;;;;3.70;3.40;;;;;;;19.94;52.50;97817.56;4890085;29;20239;-32
2023/04/19 05:06:39;;;;;;;3.53;3.23;;;;;;;19.94;52.50;97809.91;4887129;29;20227;-27
2023/04/19 05:09:06;;;;;;;3.13;2.93;;;;;;;19.81;52.35;97782.16;4885969;29;20713;-31
2023/04/19 05:11:33;;;;;;;3.27;3.07;;;;;;;19.94;52.29;97806.50;4886870;29;20211;-32
2023/04/19 05:14:00;;;;;;;3.80;3.50;;;;;;;19.94;52.24;97807.38;4889192;29;20514;-28
2023/04/19 05:16:26;;;;;;;7.60;5.77;;;;;;;19.93;51.25;97805.59;4914081;23;20580;-31
2023/04/19 05:18:53;;;;;;;7.37;6.57;;;;;;;19.94;50.51;97806.50;4953755;28;20666;-31
2023/04/19 05:21:20;;;;;;;8.60;7.70;;;;;;;19.93;49.90;97809.84;4955835;28;20216;-30
2023/04/19 05:23:47;;;;;;;11.23;8.70;;;;;;;19.92;49.48;97803.00;4944700;28;20239;-30
2023/04/19 05:26:14;;;;;;;10.33;8.90;;;;;;;19.89;49.57;97803.75;4950968;28;20220;-30
2023/04/19 05:28:41;;;;;;;9.77;8.73;;;;;;;19.93;49.24;97804.75;4958366;28;20212;-33
2023/04/19 05:31:07;;;;;;;11.67;9.97;;;;;;;19.88;49.29;97796.03;4957326;28;20682;-29
2023/04/19 05:33:34;;;;;;;12.70;10.23;;;;;;;19.91;48.38;97798.72;4954446;28;20295;-30
2023/04/19 05:36:01;;;;;;;12.27;10.47;;;;;;;19.86;48.98;97795.97;4949885;28;20216;-29
2023/04/19 05:38:27;;;;;;;11.73;10.50;;;;;;;19.90;49.12;97799.53;4957071;28;20228;-30
2023/04/19 05:40:54;;;;;;;14.63;10.33;;;;;;;19.90;48.75;97797.84;4953826;28;20200;-30
2023/04/19 05:43:20;;;;;;;11.90;9.83;;;;;;;19.90;48.98;97805.47;4946786;28;20216;-31
2023/04/19 05:45:47;;;;;;;14.27;9.77;;;;;;;19.91;49.26;97793.59;4944447;28;20212;-30
2023/04/19 05:48:13;;;;;;;11.10;9.63;;;;;;;19.90;49.82;97790.19;4952205;28;20204;-30
2023/04/19 05:50:40;;;;;;;11.00;9.63;;;;;;;19.91;49.85;97793.59;4950755;28;20212;-31
2023/04/19 05:53:06;;;;;;;10.30;9.20;;;;;;;19.93;49.98;97789.44;4931007;29;20215;-29
2023/04/19 05:55:33;;;;;;;12.47;9.63;;;;;;;19.79;49.95;97767.63;4957033;28;20201;-31
2023/04/19 05:58:00;;;;;;;11.50;8.90;;;;;;;19.94;50.45;97791.19;4957214;28;20251;-29
2023/04/19 06:00:27;;;;;;;10.80;8.90;;;;;;;19.93;50.24;97787.75;4953815;28;20628;-31
2023/04/19 06:02:53;;;;;;;9.70;8.33;;;;;;;19.90;50.50;97779.97;4950574;28;20699;-30
2023/04/19 06:05:20;;;;;;;13.30;9.93;;;;;;;19.95;50.02;97792.91;4955837;28;20208;-30
2023/04/19 06:07:47;;;;;;;14.77;11.30;;;;;;;19.93;48.92;97787.75;4956899;28;20305;-30
2023/04/19 06:10:24;;;;;;;14.27;11.83;;;;;;;19.93;48.65;97789.44;4947993;28;20596;-30
2023/04/19 06:13:02;;;;;;;14.93;10.80;;;;;;;19.94;49.15;97784.41;4953260;28;20214;-30
2023/04/19 06:15:29;;;;;;;15.93;10.27;;;;;;;19.94;49.16;97791.19;4957777;28;20216;-35
2023/04/19 06:17:56;;;;;;;10.60;9.50;;;;;;;19.81;49.10;97764.31;4958118;28;20243;-30
2023/04/19 06:20:25;;;;;;;12.70;10.13;;;;;;;19.93;49.58;97785.19;4956503;28;20343;-31
2023/04/19 06:22:51;;;;;;;11.03;9.37;;;;;;;19.93;49.95;97779.25;4957402;28;20726;-30
2023/04/19 06:25:18;;;;;;;11.87;9.37;;;;;;;19.86;49.94;97774.69;4950135;28;20235;-31
2023/04/19 06:27:45;;;;;;;13.30;10.30;;;;;;;19.92;50.08;97782.59;4952552;28;20714;-29
2023/04/19 06:30:12;;;;;;;10.63;9.50;;;;;;;19.93;50.08;97774.16;4952826;28;20291;-30
2023/04/19 06:32:39;;;;;;;9.90;8.87;;;;;;;19.91;50.34;97781.75;4955882;28;20290;-31
2023/04/19 06:35:06;;;;;;;9.43;8.47;;;;;;;19.93;50.16;97777.53;4960020;28;20736;-30
2023/04/19 06:37:33;;;;;;;10.77;9.03;;;;;;;19.93;50.13;97776.69;4950839;28;20633;-30
2023/04/19 06:40:00;;;;;;;10.60;9.33;;;;;;;19.93;50.80;97780.09;4954315;28;20270;-30
2023/04/19 06:42:27;;;;;;;10.93;8.90;;;;;;;19.94;50.24;97775.88;4954033;28;20208;-30
2023/04/19 06:44:55;;;;;;;9.60;8.60;;;;;;;19.78;50.28;97742.94;4950737;28;20204;-31
2023/04/19 06:47:22;;;;;;;11.10;8.67;;;;;;;19.94;50.39;97769.09;4951603;28;20232;-30
2023/04/19 06:49:49;;;;;;;9.83;8.47;;;;;;;19.85;50.90;97752.56;4954717;28;20608;-31
2023/04/19 06:52:15;;;;;;;9.70;8.70;;;;;;;19.89;50.68;97754.41;4958532;28;20642;-29
2023/04/19 06:54:46;;;;;;;10.60;8.63;;;;;;;19.92;50.58;97762.19;4953402;28;20204;-30
2023/04/19 06:57:13;;;;;;;10.50;8.10;;;;;;;19.96;50.31;97766.63;4945458;28;20250;-31
2023/04/19 06:59:39;;;;;;;8.77;7.87;;;;;;;19.96;50.64;97764.91;4952890;28;20278;-35
2023/04/19 07:02:06;;;;;;;14.60;7.93;;;;;;;19.96;50.67;97758.97;4932853;29;20307;-35
2023/04/19 07:04:33;;;;;;;9.03;7.90;;;;;;;19.94;50.60;97752.91;4953529;28;20220;-30
2023/04/19 07:07:00;;;;;;;10.87;7.80;;;;;;;19.91;50.95;97753.69;4952174;28;20221;-31
2023/04/19 07:09:26;;;;;;;8.30;7.27;;;;;;;19.96;50.79;97756.41;4953947;28;20218;-29
2023/04/19 07:11:53;;;;;;;8.53;7.67;;;;;;;19.96;50.98;97746.22;4946845;28;20215;-30
2023/04/19 07:14:19;;;;;;;7.60;6.87;;;;;;;19.93;50.77;97735.88;4957581;28;20212;-29
2023/04/19 07:16:46;;;;;;;10.40;7.80;;;;;;;19.97;50.80;97740.28;4956590;28;20264;-38
2023/04/19 07:19:12;;;;;;;8.63;7.80;;;;;;;19.97;51.14;97740.28;4955607;28;20220;-32
2023/04/19 07:21:39;;;;;;;7.93;7.13;;;;;;;19.98;50.77;97736.06;4950464;28;20224;-30
2023/04/19 07:24:06;;;;;;;9.43;7.07;;;;;;;19.94;50.77;97729.97;4953389;28;20224;-34
2023/04/19 07:26:33;;;;;;;8.70;7.17;;;;;;;19.98;50.79;97741.16;4951524;28;20252;-30
2023/04/19 07:29:00;;;;;;;7.60;6.77;;;;;;;19.98;50.90;97733.50;4953606;28;20541;-31
2023/04/19 07:31:26;;;;;;;7.77;6.97;;;;;;;19.98;50.89;97730.97;4953542;28;20617;-30
2023/04/19 07:33:53;;;;;;;7.23;6.53;;;;;;;19.95;51.00;97724.91;4957277;28;20266;-30
2023/04/19 07:36:20;;;;;;;8.23;6.67;;;;;;;19.92;50.96;97719.69;4954190;28;20232;-31
2023/04/19 07:38:46;;;;;;;9.37;6.77;;;;;;;19.45;51.09;97632.84;4949650;28;20232;-30
2023/04/19 07:41:13;;;;;;;6.87;6.17;;;;;;;19.98;51.04;97724.16;4931932;29;20651;-30
2023/04/19 07:43:40;;;;;;;7.97;6.70;;;;;;;19.98;51.00;97721.59;4949930;28;20228;-30
2023/04/19 07:46:10;;;;;;;7.40;6.70;;;;;;;19.98;50.72;97720.75;4949981;28;20319;-30
2023/04/19 07:48:37;;;;;;;7.47;6.27;;;;;;;19.98;50.95;97735.25;4955876;28;20240;-35
2023/04/19 07:51:16;;;;;;;7.07;6.40;;;;;;;19.98;50.95;97725.84;4962537;28;20199;-30
2023/04/19 07:53:43;;;;;;;6.60;6.00;;;;;;;19.98;50.86;97725.03;4933806;28;20200;-30
2023/04/19 07:56:10;;;;;;;7.50;6.80;;;;;;;19.98;50.99;97721.59;4954145;28;20239;-30
2023/04/19 07:58:38;;;;;;;6.80;6.03;;;;;;;19.96;50.94;97720.69;4949526;28;20216;-30
2023/04/19 08:01:05;;;;;;;6.13;5.50;;;;;;;19.98;50.46;97721.59;4946842;28;20208;-30
2023/04/19 08:03:32;;;;;;;7.40;6.43;;;;;;;19.98;50.94;97719.06;4956938;28;20310;-31
2023/04/19 08:06:04;;;;;;;7.30;6.33;;;;;;;19.99;51.10;97725.91;4937334;29;20295;-30
2023/04/19 08:08:31;;;;;;;6.73;5.63;;;;;;;19.96;50.86;97713.91;4954096;28;20208;-31
2023/04/19 08:11:01;;;;;;;7.30;6.60;;;;;;;19.96;50.98;97719.00;4940845;29;20211;-30
2023/04/19 08:13:28;;;;;;;6.53;5.93;;;;;;;19.98;51.15;97722.47;4952294;28;20215;-29
2023/04/19 08:15:55;;;;;;;7.07;6.37;;;;;;;19.98;51.05;97719.06;4949676;28;20219;-32
2023/04/19 08:18:24;;;;;;;7.10;6.40;;;;;;;19.97;50.62;97714.78;4952697;28;20208;-29
2023/04/19 08:20:51;;;;;;;6.00;5.50;;;;;;;19.96;51.27;97716.44;4960334;28;20239;-30
2023/04/19 08:23:18;;;;;;;7.50;6.17;;;;;;;19.99;51.08;97715.72;4954055;28;20212;-31
2023/04/19 08:25:53;;;;;;;6.13;5.47;;;;;;;19.99;50.85;97716.56;4954018;28;20208;-30
2023/04/19 08:28:19;;;;;;;6.27;5.67;;;;;;;19.99;51.16;97715.72;4960796;28;20733;-33
2023/04/19 08:30:46;;;;;;;6.70;6.00;;;;;;;19.99;51.29;97710.63;4954939;28;20223;-31
2023/04/19 08:33:13;;;;;;;6.20;5.60;;;;;;;19.98;51.25;97708.84;4959545;28;20220;-30
2023/04/19 08:35:40;;;;;;;5.93;5.37;;;;;;;19.99;51.13;97718.25;4953977;28;20218;-31
2023/04/19 08:38:07;;;;;;;6.07;5.53;;;;;;;19.93;51.05;97700.19;4962716;28;20228;-30
2023/04/19 08:40:34;;;;;;;6.33;5.73;;;;;;;19.96;51.01;97703.69;4957378;28;20224;-35
2023/04/19 08:43:04;;;;;;;6.93;5.83;;;;;;;19.99;50.98;97710.63;4920377;29;20200;-30
2023/04/19 08:45:30;;;;;;;7.00;5.80;;;;;;;19.99;51.57;97710.63;4961426;28;20212;-31
2023/04/19 08:47:57;;;;;;;7.97;6.47;;;;;;;19.98;51.01;97703.75;4935370;28;20247;-31
2023/04/19 08:50:27;;;;;;;8.30;6.33;;;;;;;19.99;51.14;97702.97;4954551;28;20200;-31
2023/04/19 08:53:04;;;;;;;9.20;6.30;;;;;;;19.97;50.86;97699.47;4946630;28;20571;-31
2023/04/19 08:55:49;;;;;;;8.30;6.10;;;;;;;19.87;51.00;97674.44;4961008;28;20449;-33
2023/04/19 08:58:35;;;;;;;7.30;6.43;;;;;;;19.98;51.00;97699.53;4928098;29;20208;-30
2023/04/19 09:01:22;;;;;;;6.80;6.10;;;;;;;19.98;50.92;97691.00;4953218;28;20263;-29
2023/04/19 09:04:05;;;;;;;7.03;6.00;;;;;;;19.98;51.25;97691.88;4951695;28;20699;-31
2023/04/19 09:06:46;;;;;;;7.43;6.53;;;;;;;19.93;51.12;97684.88;4953123;28;20228;-29
2023/04/19 09:09:17;;;;;;;7.10;5.70;;;;;;;19.95;51.14;97679.00;4951319;28;20233;-30
2023/04/19 09:11:47;;;;;;;7.93;5.70;;;;;;;20.00;50.97;97681.72;4953261;28;20220;-29
2023/04/19 09:14:14;;;;;;;6.80;5.90;;;;;;;20.00;51.27;97681.72;4946133;28;20207;-31
2023/04/19 09:16:41;;;;;;;6.70;6.10;;;;;;;19.99;51.28;97674.91;4953930;28;20236;-30
2023/04/19 09:19:08;;;;;;;6.57;5.97;;;;;;;20.00;51.24;97679.19;4955071;28;20350;-31
2023/04/19 09:21:51;;;;;;;6.73;6.13;;;;;;;20.00;51.45;97679.19;4961501;28;20211;-30
2023/04/19 09:24:18;;;;;;;6.40;5.80;;;;;;;19.99;51.71;97674.91;4926258;28;21039;-31
2023/04/19 09:26:54;;;;;;;7.27;5.87;;;;;;;19.95;51.78;97663.69;4958774;28;20306;-31
2023/04/19 09:29:21;;;;;;;7.77;6.37;;;;;;;19.96;51.52;97673.06;4947549;28;20312;-34
2023/04/19 09:31:57;;;;;;;6.47;5.37;;;;;;;19.96;51.50;97664.59;4959844;28;20232;-30
2023/04/19 09:34:24;;;;;;;8.37;6.10;;;;;;;20.00;51.56;97671.53;4949612;28;20200;-31
2023/04/19 09:36:51;;;;;;;7.20;5.63;;;;;;;20.01;51.39;97665.59;4953062;28;20316;-34
2023/04/19 09:39:35;;;;;;;7.27;5.97;;;;;;;20.01;51.41;97664.75;4951151;28;20344;-31
2023/04/19 09:42:01;;;;;;;5.70;5.13;;;;;;;20.02;51.49;97662.25;4953677;28;20204;-30
2023/04/19 09:44:28;;;;;;;6.93;5.77;;;;;;;19.96;51.51;97647.56;4954952;28;20219;-34
2023/04/19 09:46:57;;;;;;;5.90;5.30;;;;;;;20.02;52.00;97658.81;4956546;28;20703;-29
2023/04/19 09:49:25;;;;;;;5.93;5.37;;;;;;;20.01;51.52;97657.94;4927220;29;20295;-30
2023/04/19 09:52:12;;;;;;;6.20;5.60;;;;;;;20.01;51.46;97655.41;4955432;28;20200;-30
2023/04/19 09:54:39;;;;;;;5.70;5.20;;;;;;;19.98;51.31;97652.72;4954928;28;20685;-30
2023/04/19 09:57:06;;;;;;;5.87;5.37;;;;;;;19.98;51.58;97650.19;4921987;28;20402;-34
2023/04/19 09:59:32;;;;;;;5.90;5.30;;;;;;;20.02;51.82;97651.19;4932401;29;20741;-29
2023/04/19 10:01:59;;;;;;;6.87;5.37;;;;;;;20.02;51.44;97649.50;4953954;28;20282;-36
2023/04/19 10:04:25;;;;;;;6.07;4.83;;;;;;;20.01;51.18;97650.28;4923694;29;20208;-30
2023/04/19 10:07:12;;;;;;;5.23;4.73;;;;;;;20.02;51.63;97654.59;4961192;28;20243;-29
2023/04/19 10:09:41;;;;;;;7.90;5.30;;;;;;;20.02;51.80;97646.06;4949634;28;20200;-30
2023/04/19 10:12:19;;;;;;;5.57;5.07;;;;;;;20.02;51.47;97649.50;4923331;28;20207;-29
2023/04/19 10:15:06;;;;;;;4.93;4.40;;;;;;;20.02;51.71;97647.78;4945111;28;20259;-30
2023/04/19 10:17:33;;;;;;;7.30;5.13;;;;;;;19.98;51.40;97639.13;4930433;29;20327;-31
2023/04/19 10:20:05;;;;;;;5.57;5.00;;;;;;;20.02;51.55;97650.34;4920031;28;20262;-31
2023/04/19 10:22:33;;;;;;;5.50;5.00;;;;;;;20.02;51.48;97649.50;4954533;28;20204;-30
2023/04/19 10:25:10;;;;;;;5.83;5.33;;;;;;;20.02;51.46;97654.59;4947628;28;20287;-29
2023/04/19 10:27:36;;;;;;;6.10;4.80;;;;;;;19.98;51.75;97643.41;4952184;28;20224;-31
2023/04/19 10:30:06;;;;;;;5.30;4.80;;;;;;;19.95;51.71;97639.88;4949896;28;20678;-30
2023/04/19 10:32:37;;;;;;;5.37;4.80;;;;;;;20.00;51.74;97648.56;4948970;28;20201;-31
2023/04/19 10:35:18;;;;;;;5.40;4.83;;;;;;;20.00;51.44;97640.91;4935552;29;20440;-31
2023/04/19 10:38:05;;;;;;;5.57;4.80;;;;;;;19.81;51.63;97611.28;4953991;28;20227;-32
2023/04/19 10:40:50;;;;;;;5.13;4.57;;;;;;;20.02;51.63;97640.97;4948441;28;20382;-31
2023/04/19 10:43:17;;;;;;;5.23;4.73;;;;;;;20.02;51.75;97641.84;4950348;28;20307;-32
2023/04/19 10:45:45;;;;;;;5.43;4.93;;;;;;;19.97;51.74;97628.03;4948308;28;20200;-31
2023/04/19 10:48:53;;;;;;;5.50;5.00;;;;;;;20.02;51.72;97629.94;4950367;28;20197;-31
2023/04/19 10:51:21;;;;;;;5.40;4.90;;;;;;;20.03;51.65;97638.47;4956614;28;20204;-32
2023/04/19 10:53:48;;;;;;;5.07;4.67;;;;;;;20.02;51.56;97637.59;4951267;28;20214;-30
2023/04/19 10:56:19;;;;;;;5.20;4.70;;;;;;;19.99;51.65;97618.78;4950958;28;20232;-31
2023/04/19 11:01:51;;;;;;;5.40;4.90;;;;;;;20.03;51.72;97620.63;4952523;28;20220;-31
2023/04/19 11:04:21;;;;;;;5.50;5.00;;;;;;;20.02;51.75;97612.09;4941370;28;20267;-32
2023/04/19 11:06:51;;;;;;;4.77;4.27;;;;;;;20.02;51.65;97607.81;4954798;28;20297;-31
2023/04/19 11:09:30;;;;;;;5.53;4.70;;;;;;;19.94;51.74;97594.78;4949458;28;20204;-31
2023/04/19 11:12:00;;;;;;;5.07;4.67;;;;;;;20.03;51.71;97610.41;4951478;28;20219;-31
2023/04/19 11:14:28;;;;;;;4.70;4.30;;;;;;;20.01;51.76;97599.28;4959994;28;20302;-31
2023/04/19 11:16:55;;;;;;;4.80;4.30;;;;;;;20.03;51.33;97602.75;4975049;28;20238;-29
2023/04/19 11:19:22;;;;;;;4.70;4.30;;;;;;;20.02;51.78;97599.31;4955694;28;20207;-30
2023/04/19 11:21:48;;;;;;;4.60;4.20;;;;;;;20.02;51.64;97591.69;4951300;28;20259;-30
2023/04/19 11:24:17;;;;;;;5.63;4.50;;;;;;;20.02;51.57;97594.22;4953474;28;20215;-28
2023/04/19 11:26:45;;;;;;;4.40;4.00;;;;;;;20.02;51.67;97596.78;4948974;28;20733;-30
2023/04/19 11:29:11;;;;;;;4.80;4.40;;;;;;;19.99;51.63;97586.47;4938472;28;20216;-30
2023/04/19 11:31:38;;;;;;;4.73;4.23;;;;;;;19.96;52.22;97578.69;4946069;28;20211;-29
2023/04/19 11:34:05;;;;;;;5.00;4.60;;;;;;;20.03;51.52;97590.00;4941566;28;20604;-29
2023/04/19 11:36:32;;;;;;;4.87;4.40;;;;;;;20.02;51.57;97591.69;4947807;28;20303;-29
2023/04/19 11:38:59;;;;;;;5.03;4.20;;;;;;;20.02;51.73;97581.47;4950193;28;20214;-28